createdAt,value
2018-01-23T00:02:21.437Z,82.80
2018-01-23T00:04:49.010Z,83.10
2018-01-23T00:07:16.597Z,83.10
2018-01-23T00:09:44.158Z,83.40
2018-01-23T00:12:11.750Z,83.00
2018-01-23T00:14:39.350Z,83.90
2018-01-23T00:17:06.942Z,83.60
2018-01-23T00:19:34.509Z,83.40
2018-01-23T00:22:02.138Z,83.70
2018-01-23T00:24:30.473Z,83.60
2018-01-23T00:26:58.062Z,83.50
2018-01-23T00:29:26.398Z,83.20
2018-01-23T00:31:54.037Z,83.00
2018-01-23T00:34:21.614Z,82.80
2018-01-23T00:36:49.209Z,83.00
2018-01-23T00:39:16.780Z,83.00
2018-01-23T00:41:45.146Z,82.50
2018-01-23T00:44:12.713Z,82.50
2018-01-23T00:46:41.062Z,83.50
2018-01-23T00:49:08.662Z,83.50
2018-01-23T00:51:37.001Z,83.30
2018-01-23T00:54:04.590Z,83.20
2018-01-23T00:56:32.150Z,82.90
2018-01-23T00:59:00.509Z,82.50
2018-01-23T01:01:28.082Z,82.50
2018-01-23T01:03:55.683Z,82.30
2018-01-23T01:06:23.251Z,82.30
2018-01-23T01:08:50.839Z,82.30
2018-01-23T01:11:18.408Z,82.40
2018-01-23T01:13:46.006Z,82.20
2018-01-23T01:16:13.582Z,81.70
2018-01-23T01:18:41.180Z,81.30
2018-01-23T01:21:08.745Z,81.40
2018-01-23T01:23:36.338Z,81.40
2018-01-23T01:26:03.910Z,80.80
2018-01-23T01:28:31.502Z,81.50
2018-01-23T01:30:59.072Z,81.50
2018-01-23T01:33:26.665Z,81.20
2018-01-23T01:35:54.996Z,80.90
2018-01-23T01:38:22.606Z,80.90
2018-01-23T01:40:50.177Z,80.50
2018-01-23T01:43:17.765Z,80.60
2018-01-23T01:45:45.335Z,80.90
2018-01-23T01:48:12.978Z,80.60
2018-01-23T01:50:40.722Z,80.70
2018-01-23T01:53:08.314Z,80.50
2018-01-23T01:55:35.877Z,80.40
2018-01-23T01:58:03.458Z,80.50
2018-01-23T02:00:31.059Z,80.20
2018-01-23T02:02:58.629Z,79.70
2018-01-23T02:05:26.226Z,80.40
2018-01-23T02:07:53.797Z,80.20
2018-01-23T02:10:21.400Z,79.80
2018-01-23T02:12:48.985Z,80.70
2018-01-23T02:15:16.579Z,80.80
2018-01-23T02:17:44.920Z,81.40
2018-01-23T02:20:12.510Z,81.40
2018-01-23T02:22:40.073Z,81.00
2018-01-23T02:25:07.674Z,80.80
2018-01-23T02:27:35.243Z,80.20
2018-01-23T02:30:02.834Z,80.10
2018-01-23T02:32:30.405Z,79.90
2018-01-23T02:34:58.019Z,79.60
2018-01-23T02:37:25.595Z,79.40
2018-01-23T02:39:53.206Z,78.50
2018-01-23T02:42:21.556Z,79.10
2018-01-23T02:44:49.149Z,79.00
2018-01-23T02:47:16.723Z,78.40
2018-01-23T02:49:44.313Z,78.70
2018-01-23T02:52:11.882Z,79.30
2018-01-23T02:54:39.473Z,79.00
2018-01-23T02:57:07.033Z,79.00
2018-01-23T02:59:35.392Z,78.60
2018-01-23T03:02:03.037Z,78.60
2018-01-23T03:04:30.637Z,79.90
2018-01-23T03:06:58.201Z,79.20
2018-01-23T03:09:25.769Z,78.70
2018-01-23T03:11:53.353Z,79.30
2018-01-23T03:14:20.923Z,79.70
2018-01-23T03:16:48.524Z,79.90
2018-01-23T03:19:16.863Z,80.00
2018-01-23T03:21:44.470Z,80.00
2018-01-23T03:24:12.040Z,80.00
2018-01-23T03:26:39.625Z,79.60
2018-01-23T03:29:07.190Z,78.70
2018-01-23T03:31:34.785Z,79.10
2018-01-23T03:34:03.128Z,79.10
2018-01-23T03:36:30.726Z,79.10
2018-01-23T03:38:58.300Z,78.70
2018-01-23T03:41:25.906Z,78.70
2018-01-23T03:43:53.478Z,77.40
2018-01-23T03:46:21.065Z,77.70
2018-01-23T03:48:49.401Z,77.50
2018-01-23T03:51:16.990Z,77.50
2018-01-23T03:53:44.564Z,78.60
2018-01-23T03:56:12.162Z,78.70
2018-01-23T03:58:39.741Z,78.90
2018-01-23T04:01:07.337Z,78.90
2018-01-23T04:03:35.672Z,77.90
2018-01-23T04:06:03.250Z,77.80
2018-01-23T04:08:30.812Z,78.50
2018-01-23T04:10:58.408Z,78.90
2018-01-23T04:13:25.986Z,78.80
2018-01-23T04:15:53.577Z,78.70
2018-01-23T04:18:21.141Z,78.50
2018-01-23T04:20:48.742Z,78.60
2018-01-23T04:23:16.308Z,79.00
2018-01-23T04:25:43.912Z,79.50
2018-01-23T04:28:11.495Z,79.60
2018-01-23T04:30:39.067Z,80.40
2018-01-23T04:33:06.659Z,79.80
2018-01-23T04:35:34.233Z,80.70
2018-01-23T04:38:01.816Z,81.10
2018-01-23T04:40:29.397Z,80.30
2018-01-23T04:42:57.760Z,80.80
2018-01-23T04:45:25.330Z,80.80
2018-01-23T04:47:52.921Z,80.60
2018-01-23T04:50:20.495Z,80.20
2018-01-23T04:52:48.090Z,80.10
2018-01-23T04:55:15.667Z,80.70
2018-01-23T04:57:44.034Z,82.80
2018-01-23T05:00:11.606Z,82.40
2018-01-23T05:02:39.204Z,82.00
2018-01-23T05:05:06.768Z,81.20
2018-01-23T05:07:34.355Z,80.60
2018-01-23T05:10:02.692Z,80.70
2018-01-23T05:12:30.291Z,81.40
2018-01-23T05:14:57.853Z,81.10
2018-01-23T05:17:25.446Z,81.00
2018-01-23T05:19:53.018Z,80.90
2018-01-23T05:22:20.610Z,81.10
2018-01-23T05:24:48.180Z,80.70
2018-01-23T05:27:15.771Z,81.40
2018-01-23T05:29:43.338Z,82.00
2018-01-23T05:32:10.936Z,82.30
2018-01-23T05:34:38.677Z,81.60
2018-01-23T05:37:06.254Z,81.80
2018-01-23T05:39:33.845Z,81.40
2018-01-23T05:42:06.335Z,81.20
2018-01-23T05:44:33.978Z,81.10
2018-01-23T05:47:01.560Z,81.30
2018-01-23T05:49:29.159Z,82.00
2018-01-23T05:51:56.737Z,81.60
2018-01-23T05:54:25.040Z,81.90
2018-01-23T05:56:52.605Z,82.30
2018-01-23T05:59:20.194Z,80.10
2018-01-23T06:01:47.773Z,81.10
2018-01-23T06:04:15.368Z,80.90
2018-01-23T06:06:42.933Z,79.90
2018-01-23T06:09:10.521Z,78.40
2018-01-23T06:11:38.095Z,78.90
2018-01-23T06:14:05.685Z,77.60
2018-01-23T06:16:33.250Z,77.70
2018-01-23T06:19:01.620Z,78.30
2018-01-23T06:21:29.190Z,78.30
2018-01-23T06:23:56.783Z,78.30
2018-01-23T06:26:24.370Z,78.60
2018-01-23T06:28:52.153Z,78.80
2018-01-23T06:31:19.717Z,79.40
2018-01-23T06:33:47.306Z,79.90
2018-01-23T06:36:14.880Z,79.90
2018-01-23T06:38:42.464Z,80.30
2018-01-23T06:41:10.030Z,80.30
2018-01-23T06:43:37.622Z,80.30
2018-01-23T06:46:05.198Z,80.50
2018-01-23T06:48:34.298Z,81.00
2018-01-23T06:51:01.866Z,80.20
2018-01-23T06:53:29.472Z,80.50
2018-01-23T06:55:57.039Z,80.80
2018-01-23T06:58:24.606Z,80.60
2018-01-23T07:00:52.215Z,80.40
2018-01-23T07:03:20.545Z,80.20
2018-01-23T07:05:48.135Z,80.20
2018-01-23T07:08:15.694Z,80.30
2018-01-23T07:10:43.280Z,80.00
2018-01-23T07:13:11.619Z,80.20
2018-01-23T07:15:39.214Z,80.20
2018-01-23T07:18:06.807Z,79.10
2018-01-23T07:20:34.398Z,79.20
2018-01-23T07:23:01.972Z,79.70
2018-01-23T07:25:29.594Z,80.20
2018-01-23T07:27:57.163Z,79.70
2018-01-23T07:30:24.758Z,79.90
2018-01-23T07:32:52.324Z,79.50
2018-01-23T07:35:20.713Z,79.40
2018-01-23T07:37:48.292Z,79.30
2018-01-23T07:40:15.882Z,80.30
2018-01-23T07:42:43.450Z,80.40
2018-01-23T07:45:11.047Z,80.10
2018-01-23T07:47:39.383Z,80.30
2018-01-23T07:50:06.976Z,80.30
2018-01-23T07:52:35.312Z,79.80
2018-01-23T07:55:02.907Z,79.80
2018-01-23T07:57:30.473Z,80.00
2018-01-23T07:59:58.824Z,80.50
2018-01-23T08:02:26.399Z,80.50
2018-01-23T08:04:54.003Z,80.80
2018-01-23T08:07:21.580Z,81.10
2018-01-23T08:09:49.176Z,80.90
2018-01-23T08:12:16.798Z,80.90
2018-01-23T08:14:44.350Z,81.10
2018-01-23T08:17:11.949Z,81.20
2018-01-23T08:19:39.527Z,80.70
2018-01-23T08:22:07.117Z,80.70
2018-01-23T08:24:34.988Z,80.90
2018-01-23T08:27:02.582Z,80.40
2018-01-23T08:29:30.154Z,80.00
2018-01-23T08:31:57.742Z,80.20
2018-01-23T08:34:25.312Z,79.80
2018-01-23T08:36:52.910Z,78.70
2018-01-23T08:39:20.518Z,79.40
2018-01-23T08:41:48.110Z,80.00
2018-01-23T08:44:15.688Z,79.00
2018-01-23T08:46:43.282Z,78.80
2018-01-23T08:49:11.622Z,78.70
2018-01-23T08:51:39.220Z,78.70
2018-01-23T08:54:06.781Z,79.20
2018-01-23T08:56:34.370Z,79.00
2018-01-23T08:59:01.952Z,77.60
2018-01-23T09:01:29.541Z,77.90
2018-01-23T09:03:57.104Z,76.50
2018-01-23T09:06:24.694Z,77.70
2018-01-23T09:08:52.260Z,77.40
2018-01-23T09:11:19.851Z,77.10
2018-01-23T09:13:48.183Z,76.00
2018-01-23T09:16:15.778Z,76.00
2018-01-23T09:18:43.349Z,75.90
2018-01-23T09:21:10.945Z,75.30
2018-01-23T09:23:38.517Z,75.70
2018-01-23T09:26:06.110Z,75.10
2018-01-23T09:28:33.698Z,74.30
2018-01-23T09:31:01.274Z,75.10
2018-01-23T09:33:28.876Z,75.30
2018-01-23T09:35:56.444Z,75.30
2018-01-23T09:38:24.039Z,75.60
2018-01-23T09:40:51.624Z,75.00
2018-01-23T09:43:19.981Z,72.60
2018-01-23T09:45:47.578Z,72.50
2018-01-23T09:48:15.171Z,73.10
2018-01-23T09:50:42.740Z,73.90
2018-01-23T09:53:10.373Z,73.30
2018-01-23T09:55:37.942Z,72.30
2018-01-23T09:58:05.654Z,72.10
2018-01-23T10:00:33.986Z,70.20
2018-01-23T10:03:01.582Z,70.20
2018-01-23T10:05:29.145Z,70.70
2018-01-23T10:07:57.499Z,68.50
2018-01-23T10:10:25.062Z,68.20
2018-01-23T10:12:52.653Z,69.50
2018-01-23T10:15:20.989Z,70.70
2018-01-23T10:17:48.574Z,70.60
2018-01-23T10:20:16.150Z,69.20
2018-01-23T10:22:44.542Z,68.50
2018-01-23T10:25:12.114Z,68.40
2018-01-23T10:27:39.701Z,68.80
2018-01-23T10:30:07.270Z,70.00
2018-01-23T10:32:34.862Z,70.10
2018-01-23T10:35:03.375Z,69.00
2018-01-23T10:37:30.975Z,69.00
2018-01-23T10:39:58.541Z,69.60
2018-01-23T10:42:26.137Z,68.20
2018-01-23T10:44:53.723Z,68.50
2018-01-23T10:47:21.310Z,69.50
2018-01-23T10:49:48.935Z,68.10
2018-01-23T10:52:16.512Z,68.90
2018-01-23T10:54:44.242Z,70.10
2018-01-23T10:57:11.810Z,68.50
2018-01-23T10:59:39.397Z,68.80
2018-01-23T11:02:06.977Z,68.70
2018-01-23T11:04:34.577Z,68.00
2018-01-23T11:07:02.176Z,67.70
2018-01-23T11:09:30.379Z,68.20
2018-01-23T11:11:57.959Z,67.60
2018-01-23T11:14:25.560Z,65.40
2018-01-23T11:16:53.913Z,66.80
2018-01-23T11:19:21.523Z,66.80
2018-01-23T11:21:49.115Z,66.00
2018-01-23T11:24:16.725Z,64.00
2018-01-23T11:26:44.349Z,64.30
2018-01-23T11:29:11.947Z,65.30
2018-01-23T11:31:39.535Z,64.50
2018-01-23T11:34:07.894Z,63.20
2018-01-23T11:36:35.470Z,63.20
2018-01-23T11:39:03.110Z,64.70
2018-01-23T11:41:30.817Z,63.60
2018-01-23T11:43:58.421Z,66.10
2018-01-23T11:46:26.020Z,64.60
2018-01-23T11:48:54.398Z,64.00
2018-01-23T11:51:22.746Z,65.30
2018-01-23T11:53:50.352Z,64.40
2018-01-23T11:56:17.942Z,64.00
2018-01-23T11:58:45.536Z,61.30
2018-01-23T12:01:13.156Z,62.00
2018-01-23T12:03:40.773Z,63.50
2018-01-23T12:06:08.378Z,64.70
2018-01-23T12:08:35.950Z,65.20
2018-01-23T12:11:03.553Z,63.50
2018-01-23T12:13:31.908Z,61.90
2018-01-23T12:15:59.518Z,61.80
2018-01-23T12:18:27.090Z,64.10
2018-01-23T12:20:54.938Z,62.80
2018-01-23T12:23:22.541Z,62.60
2018-01-23T12:25:50.141Z,61.90
2018-01-23T12:28:18.479Z,62.90
2018-01-23T12:30:46.106Z,62.80
2018-01-23T12:33:13.677Z,63.80
2018-01-23T12:35:41.265Z,61.40
2018-01-23T12:38:09.105Z,62.70
2018-01-23T12:40:37.017Z,62.00
2018-01-23T12:43:04.634Z,62.80
2018-01-23T12:45:32.231Z,61.20
2018-01-23T12:48:02.229Z,62.30
2018-01-23T12:50:29.833Z,62.30
2018-01-23T12:52:57.409Z,60.90
2018-01-23T12:55:25.014Z,62.60
2018-01-23T12:57:52.604Z,62.50
2018-01-23T13:00:20.442Z,62.70
2018-01-23T13:02:48.021Z,62.60
2018-01-23T13:05:15.621Z,62.00
2018-01-23T13:07:43.194Z,61.10
2018-01-23T13:10:10.788Z,61.70
2018-01-23T13:12:38.369Z,62.30
2018-01-23T13:15:05.938Z,61.90
2018-01-23T13:17:33.541Z,59.60
2018-01-23T13:20:01.129Z,61.20
2018-01-23T13:22:28.743Z,60.90
2018-01-23T13:24:56.327Z,60.80
2018-01-23T13:27:23.933Z,60.40
2018-01-23T13:29:51.543Z,62.40
2018-01-23T13:32:19.138Z,60.50
2018-01-23T13:34:46.725Z,61.70
2018-01-23T13:37:14.324Z,61.20
2018-01-23T13:39:41.902Z,61.50
2018-01-23T13:42:10.277Z,63.00
2018-01-23T13:44:38.614Z,63.20
2018-01-23T13:47:06.234Z,63.20
2018-01-23T13:49:33.807Z,61.90
2018-01-23T13:52:01.402Z,62.80
2018-01-23T13:54:28.990Z,63.00
2018-01-23T13:56:56.595Z,63.60
2018-01-23T13:59:24.173Z,63.20
2018-01-23T14:01:51.774Z,63.00
2018-01-23T14:04:20.127Z,62.70
2018-01-23T14:06:47.729Z,62.60
2018-01-23T14:09:15.447Z,63.80
2018-01-23T14:11:43.114Z,64.00
2018-01-23T14:14:10.688Z,63.80
2018-01-23T14:16:38.283Z,63.60
2018-01-23T14:19:05.857Z,63.20
2018-01-23T14:21:33.439Z,62.90
2018-01-23T14:24:01.827Z,63.40
2018-01-23T14:26:29.846Z,63.30
2018-01-23T14:28:57.419Z,63.90
2018-01-23T14:31:25.038Z,63.60
2018-01-23T14:33:52.610Z,64.70
2018-01-23T14:36:20.972Z,65.00
2018-01-23T14:38:49.311Z,64.90
2018-01-23T14:41:19.929Z,64.80
2018-01-23T14:43:48.334Z,64.20
2018-01-23T14:46:15.908Z,64.10
2018-01-23T14:48:43.513Z,63.90
2018-01-23T14:51:11.082Z,64.70
2018-01-23T14:53:38.685Z,65.30
2018-01-23T14:56:06.269Z,66.10
2018-01-23T14:58:34.649Z,65.20
2018-01-23T15:01:02.213Z,65.20
2018-01-23T15:03:29.814Z,65.00
2018-01-23T15:05:57.390Z,64.60
2018-01-23T15:08:25.058Z,64.00
2018-01-23T15:10:52.642Z,65.10
2018-01-23T15:13:20.233Z,64.80
2018-01-23T15:15:48.569Z,64.80
2018-01-23T15:18:16.165Z,64.70
2018-01-23T15:20:43.738Z,65.30
2018-01-23T15:23:11.334Z,64.80
2018-01-23T15:25:38.920Z,65.60
2018-01-23T15:28:06.513Z,66.20
2018-01-23T15:30:34.073Z,65.60
2018-01-23T15:33:01.665Z,66.20
2018-01-23T15:35:29.234Z,65.40
2018-01-23T15:37:57.602Z,66.10
2018-01-23T15:40:25.174Z,66.10
2018-01-23T15:42:53.538Z,65.60
2018-01-23T15:45:21.113Z,65.60
2018-01-23T15:47:49.532Z,66.00
2018-01-23T15:50:17.090Z,66.00
2018-01-23T15:52:44.685Z,66.30
2018-01-23T15:55:12.258Z,66.00
2018-01-23T15:57:39.823Z,65.50
2018-01-23T16:00:07.412Z,66.50
2018-01-23T16:02:35.268Z,65.40
2018-01-23T16:05:02.884Z,66.20
2018-01-23T16:07:30.454Z,66.60
2018-01-23T16:09:58.056Z,66.30
2018-01-23T16:12:25.650Z,66.40
2018-01-23T16:14:53.256Z,65.70
2018-01-23T16:17:20.834Z,65.50
2018-01-23T16:19:48.510Z,66.60
2018-01-23T16:22:16.082Z,67.10
2018-01-23T16:24:43.776Z,66.80
2018-01-23T16:27:11.349Z,65.90
2018-01-23T16:29:39.713Z,66.90
2018-01-23T16:32:07.299Z,66.90
2018-01-23T16:34:34.892Z,66.90
2018-01-23T16:37:02.465Z,66.60
2018-01-23T16:39:30.063Z,67.30
2018-01-23T16:41:57.641Z,65.90
2018-01-23T16:44:25.261Z,66.30
2018-01-23T16:46:52.855Z,66.60
2018-01-23T16:49:21.221Z,67.30
2018-01-23T16:51:49.556Z,66.50
2018-01-23T16:54:17.154Z,66.50
2018-01-23T16:56:45.497Z,68.00
2018-01-23T16:59:13.101Z,67.90
2018-01-23T17:01:41.441Z,68.50
2018-01-23T17:04:09.029Z,68.50
2018-01-23T17:06:37.375Z,68.20
2018-01-23T17:09:05.051Z,68.10
2018-01-23T17:11:32.622Z,66.90
2018-01-23T17:14:00.962Z,68.00
2018-01-23T17:16:28.557Z,67.90
2018-01-23T17:18:56.121Z,68.20
2018-01-23T17:21:23.721Z,68.50
2018-01-23T17:23:52.057Z,67.50
2018-01-23T17:26:20.423Z,67.90
2018-01-23T17:28:47.993Z,67.90
2018-01-23T17:31:15.638Z,68.40
2018-01-23T17:33:43.265Z,68.90
2018-01-23T17:36:10.862Z,69.00
2018-01-23T17:38:38.447Z,70.00
2018-01-23T17:41:06.115Z,70.90
2018-01-23T17:43:33.732Z,71.10
2018-01-23T17:46:01.341Z,70.70
2018-01-23T17:48:28.906Z,71.70
2018-01-23T17:50:56.498Z,71.60
2018-01-23T17:53:24.477Z,71.50
2018-01-23T17:55:52.081Z,71.00
2018-01-23T17:58:19.660Z,71.00
2018-01-23T18:00:47.257Z,69.60
2018-01-23T18:03:14.888Z,69.60
2018-01-23T18:05:42.477Z,70.50
2018-01-23T18:08:10.057Z,70.40
2018-01-23T18:10:37.728Z,70.40
2018-01-23T18:13:06.086Z,70.20
2018-01-23T18:15:33.730Z,70.20
2018-01-23T18:18:01.300Z,71.70
2018-01-23T18:20:28.929Z,72.10
2018-01-23T18:22:56.528Z,71.90
2018-01-23T18:25:24.090Z,72.50
2018-01-23T18:27:51.694Z,72.80
2018-01-23T18:30:19.338Z,73.20
2018-01-23T18:32:46.925Z,73.70
2018-01-23T18:35:14.565Z,74.10
2018-01-23T18:37:42.155Z,74.10
2018-01-23T18:40:09.783Z,74.50
2018-01-23T18:42:37.428Z,73.90
2018-01-23T18:45:05.044Z,74.90
2018-01-23T18:47:33.431Z,75.20
2018-01-23T18:50:01.052Z,75.20
2018-01-23T18:52:28.693Z,74.70
2018-01-23T18:54:56.318Z,74.70
2018-01-23T18:57:23.922Z,75.20
2018-01-23T18:59:51.530Z,75.70
2018-01-23T19:02:19.163Z,75.90
2018-01-23T19:04:46.737Z,75.20
2018-01-23T19:07:14.342Z,75.50
2018-01-23T19:09:42.986Z,76.50
2018-01-23T19:12:11.396Z,76.10
2018-01-23T19:14:39.003Z,76.10
2018-01-23T19:17:06.643Z,76.50
2018-01-23T19:19:34.214Z,76.10
2018-01-23T19:22:01.805Z,76.40
2018-01-23T19:24:30.933Z,75.50
2018-01-23T19:26:59.340Z,75.80
2018-01-23T19:29:26.907Z,75.90
2018-01-23T19:31:54.569Z,75.90
2018-01-23T19:34:22.197Z,76.40
2018-01-23T19:36:49.815Z,76.80
2018-01-23T19:39:17.462Z,76.50
2018-01-23T19:41:45.039Z,77.00
2018-01-23T19:44:12.634Z,76.90
2018-01-23T19:46:40.198Z,77.80
2018-01-23T19:49:08.600Z,76.50
2018-01-23T19:51:36.222Z,76.40
2018-01-23T19:54:03.957Z,76.20
2018-01-23T19:56:31.580Z,76.80
2018-01-23T19:58:59.175Z,77.00
2018-01-23T20:01:26.786Z,77.60
2018-01-23T20:03:54.378Z,77.00
2018-01-23T20:06:22.003Z,77.10
2018-01-23T20:08:49.602Z,76.40
2018-01-23T20:11:17.230Z,76.90
2018-01-23T20:13:44.874Z,77.30
2018-01-23T20:16:12.495Z,77.10
2018-01-23T20:18:40.096Z,76.40
2018-01-23T20:21:07.721Z,76.60
2018-01-23T20:23:35.376Z,77.00
2018-01-23T20:26:02.987Z,77.30
2018-01-23T20:28:30.582Z,77.00
2018-01-23T20:30:58.201Z,76.70
2018-01-23T20:33:25.836Z,76.80
2018-01-23T20:35:53.410Z,77.70
2018-01-23T20:38:21.044Z,78.60
2018-01-23T20:40:48.609Z,77.50
2018-01-23T20:43:16.252Z,77.20
2018-01-23T20:45:43.874Z,76.70
2018-01-23T20:48:11.517Z,77.00
2018-01-23T20:50:39.848Z,77.00
2018-01-23T20:53:07.453Z,77.00
2018-01-23T20:55:35.073Z,77.00
2018-01-23T20:58:02.700Z,77.20
2018-01-23T21:00:30.362Z,76.90
2018-01-23T21:02:57.979Z,77.50
2018-01-23T21:05:25.612Z,77.10
2018-01-23T21:07:53.237Z,77.30
2018-01-23T21:10:20.873Z,77.60
2018-01-23T21:12:48.450Z,77.40
2018-01-23T21:15:16.096Z,77.10
2018-01-23T21:17:44.486Z,77.20
2018-01-23T21:20:12.178Z,77.10
2018-01-23T21:22:39.734Z,77.20
2018-01-23T21:25:07.381Z,78.10
2018-01-23T21:27:35.006Z,77.60
2018-01-23T21:30:02.651Z,77.60
2018-01-23T21:32:30.265Z,77.70
2018-01-23T21:34:57.859Z,77.70
2018-01-23T21:37:26.272Z,76.50
2018-01-23T21:39:54.625Z,77.10
2018-01-23T21:42:22.202Z,77.00
2018-01-23T21:44:50.615Z,76.90
2018-01-23T21:47:18.189Z,76.90
2018-01-23T21:49:45.769Z,76.60
2018-01-23T21:52:13.338Z,76.10
2018-01-23T21:54:40.985Z,75.90
2018-01-23T21:57:08.567Z,75.90
2018-01-23T21:59:36.170Z,75.80
2018-01-23T22:02:03.739Z,75.60
2018-01-23T22:04:31.337Z,75.80
2018-01-23T22:06:58.909Z,76.00
2018-01-23T22:09:27.246Z,76.60
2018-01-23T22:11:54.838Z,76.50
2018-01-23T22:14:22.406Z,76.70
2018-01-23T22:16:50.770Z,76.50
2018-01-23T22:19:18.344Z,76.40
2018-01-23T22:21:45.980Z,76.10
2018-01-23T22:24:13.591Z,75.90
2018-01-23T22:26:41.183Z,76.00
2018-01-23T22:29:08.749Z,76.30
2018-01-23T22:31:36.384Z,76.50
2018-01-23T22:34:03.961Z,75.70
2018-01-23T22:36:31.566Z,75.30
2018-01-23T22:38:59.907Z,75.70
2018-01-23T22:41:27.498Z,75.60
2018-01-23T22:43:55.066Z,75.50
2018-01-23T22:46:23.422Z,75.20
2018-01-23T22:48:51.000Z,75.20
2018-01-23T22:51:19.361Z,75.80
2018-01-23T22:53:46.975Z,75.80
2018-01-23T22:56:14.565Z,76.90
2018-01-23T22:58:42.133Z,73.70
2018-01-23T23:01:09.726Z,74.80
2018-01-23T23:03:37.301Z,74.10
2018-01-23T23:06:04.890Z,74.80
2018-01-23T23:08:32.453Z,74.40
2018-01-23T23:11:00.053Z,74.90
2018-01-23T23:13:27.618Z,74.50
2018-01-23T23:15:55.210Z,74.30
2018-01-23T23:18:22.773Z,74.10
2018-01-23T23:20:50.369Z,74.50
2018-01-23T23:23:17.926Z,74.60
2018-01-23T23:25:45.490Z,75.00
2018-01-23T23:28:13.077Z,74.90
2018-01-23T23:30:40.637Z,75.30
2018-01-23T23:33:08.231Z,75.00
2018-01-23T23:35:35.793Z,74.20
2018-01-23T23:38:03.387Z,74.50
2018-01-23T23:40:30.954Z,74.60
2018-01-23T23:42:59.301Z,75.10
2018-01-23T23:45:26.867Z,75.10
2018-01-23T23:47:54.457Z,75.30
2018-01-23T23:50:22.786Z,76.30
2018-01-23T23:52:50.379Z,76.20
2018-01-23T23:55:18.718Z,76.60
2018-01-23T23:57:46.300Z,76.50
